McGregor, Minnesota
Current Conditions -  °F | °C
As of 9:25 PM on Wednesday 22 Oct 2014 (Local Time) from KHZX Reporting Station
Broken Clouds Broken Clouds  
Wind Chill: 54°   Ceiling: 5500
Heat Index: 54°   Visibility: 10mi
Dew Point: 41°   Wind: 10mph
Humidity: 62%   Direction: 160°SSE
Pressure: 30.01"   Gusts: NA
Location:  46.61°N, 93.31°W
Report Text: KHZX 230225Z AUTO 16009KT 10SM BKN055 12/05 A3001 RMK AO2
Loading
Personal Weather Stations






























Interactive Weather Map
Tropical Storm Tracking
New forecast layout! Learn more

10-Day Weather Forecast

Advertisements
Track Severe Weather on mobile